createdAt,value
2023-05-13T00:00:28.889Z,20.73
2023-05-13T00:02:56.567Z,19.93
2023-05-13T00:05:24.200Z,18.40
2023-05-13T00:07:51.867Z,19.13
2023-05-13T00:10:19.624Z,21.10
2023-05-13T00:12:47.315Z,18.17
2023-05-13T00:15:14.862Z,20.47
2023-05-13T00:17:42.413Z,22.60
2023-05-13T00:20:10.105Z,17.37
2023-05-13T00:22:37.608Z,18.97
2023-05-13T00:25:05.281Z,19.57
2023-05-13T00:27:32.774Z,18.10
2023-05-13T00:30:00.300Z,15.93
2023-05-13T00:32:27.841Z,17.33
2023-05-13T00:34:55.420Z,18.90
2023-05-13T00:37:23.043Z,16.63
2023-05-13T00:39:50.862Z,17.67
2023-05-13T00:42:18.374Z,19.20
2023-05-13T00:44:46.162Z,17.20
2023-05-13T00:47:13.761Z,15.97
2023-05-13T00:49:41.466Z,16.80
2023-05-13T00:52:09.104Z,16.50
2023-05-13T00:54:36.649Z,16.60
2023-05-13T00:57:04.201Z,19.43
2023-05-13T00:59:31.964Z,16.87
2023-05-13T01:02:14.899Z,18.17
2023-05-13T01:04:51.262Z,20.90
2023-05-13T01:07:21.545Z,15.57
2023-05-13T01:09:49.074Z,17.67
2023-05-13T01:12:27.403Z,19.50
2023-05-13T01:14:59.531Z,20.30
2023-05-13T01:17:33.304Z,15.63
2023-05-13T01:20:01.479Z,18.30
2023-05-13T01:22:29.001Z,17.13
2023-05-13T01:24:56.698Z,21.40
2023-05-13T01:27:24.252Z,15.97
2023-05-13T01:29:51.832Z,15.47
2023-05-13T01:32:19.642Z,15.60
2023-05-13T01:34:47.485Z,16.37
2023-05-13T01:37:15.030Z,19.00
2023-05-13T01:39:43.081Z,18.77
2023-05-13T01:42:10.608Z,16.20
2023-05-13T01:44:38.191Z,15.77
2023-05-13T01:47:05.778Z,15.03
2023-05-13T01:49:33.369Z,20.77
2023-05-13T01:52:00.884Z,15.93
2023-05-13T01:54:28.416Z,16.93
2023-05-13T01:56:55.899Z,16.03
2023-05-13T01:59:23.652Z,15.03
2023-05-13T02:01:51.187Z,18.33
2023-05-13T02:04:18.754Z,18.00
2023-05-13T02:06:46.246Z,20.30
2023-05-13T02:09:13.805Z,20.47
2023-05-13T02:11:41.324Z,16.27
2023-05-13T02:14:08.967Z,18.03
2023-05-13T02:16:36.534Z,16.07
2023-05-13T02:19:04.248Z,16.93
2023-05-13T02:21:31.894Z,16.90
2023-05-13T02:23:59.477Z,20.93
2023-05-13T02:26:27.065Z,18.20
2023-05-13T02:28:54.635Z,19.57
2023-05-13T02:31:22.167Z,18.97
2023-05-13T02:33:49.715Z,20.57
2023-05-13T02:36:17.219Z,19.47
2023-05-13T02:38:44.779Z,17.63
2023-05-13T02:41:12.314Z,17.97
2023-05-13T02:43:39.832Z,17.90
2023-05-13T02:46:07.389Z,16.90
2023-05-13T02:48:35.058Z,18.97
2023-05-13T02:51:02.552Z,18.27
2023-05-13T02:53:30.180Z,18.57
2023-05-13T02:55:57.686Z,17.70
2023-05-13T02:58:25.279Z,18.30
2023-05-13T03:00:52.802Z,18.33
2023-05-13T03:03:20.459Z,17.30
2023-05-13T03:05:47.992Z,18.07
2023-05-13T03:08:15.580Z,16.53
2023-05-13T03:10:43.120Z,17.00
2023-05-13T03:13:10.758Z,15.97
2023-05-13T03:15:38.326Z,19.37
2023-05-13T03:18:05.969Z,18.80
2023-05-13T03:20:33.466Z,16.40
2023-05-13T03:23:01.027Z,16.83
2023-05-13T03:25:28.537Z,16.17
2023-05-13T03:27:56.060Z,15.57
2023-05-13T03:30:23.755Z,17.30
2023-05-13T03:32:53.255Z,16.57
2023-05-13T03:35:20.754Z,17.13
2023-05-13T03:37:48.358Z,15.07
2023-05-13T03:40:15.930Z,16.77
2023-05-13T03:42:43.488Z,15.03
2023-05-13T03:45:11.183Z,17.83
2023-05-13T03:47:38.820Z,18.90
2023-05-13T03:50:06.637Z,15.77
2023-05-13T03:52:34.238Z,16.37
2023-05-13T03:55:01.776Z,18.37
2023-05-13T03:57:29.324Z,16.23
2023-05-13T03:59:56.821Z,17.10
2023-05-13T04:02:24.462Z,15.47
2023-05-13T04:04:52.170Z,15.27
2023-05-13T04:07:19.822Z,16.93
2023-05-13T04:09:47.295Z,15.53
2023-05-13T04:12:14.888Z,14.23
2023-05-13T04:14:42.367Z,15.20
2023-05-13T04:17:10.046Z,15.57
2023-05-13T04:19:37.610Z,17.57
2023-05-13T04:22:05.247Z,17.97
2023-05-13T04:24:32.784Z,14.13
2023-05-13T04:27:01.456Z,14.50
2023-05-13T04:29:29.183Z,18.80
2023-05-13T04:31:56.756Z,14.40
2023-05-13T04:34:24.313Z,14.40
2023-05-13T04:36:54.179Z,14.67
2023-05-13T04:39:21.695Z,14.17
2023-05-13T04:41:49.244Z,14.93
2023-05-13T04:44:16.741Z,16.03
2023-05-13T04:46:44.282Z,13.13
2023-05-13T04:49:11.789Z,14.97
2023-05-13T04:51:39.717Z,12.30
2023-05-13T04:54:07.714Z,15.27
2023-05-13T04:56:35.267Z,11.70
2023-05-13T04:59:02.862Z,11.57
2023-05-13T05:01:30.464Z,13.77
2023-05-13T05:03:58.932Z,11.60
2023-05-13T05:06:26.482Z,14.00
2023-05-13T05:08:54.020Z,11.53
2023-05-13T05:11:21.664Z,12.03
2023-05-13T05:13:49.310Z,13.97
2023-05-13T05:16:17.005Z,12.23
2023-05-13T05:18:44.594Z,10.83
2023-05-13T05:21:12.416Z,14.20
2023-05-13T05:23:40.054Z,13.90
2023-05-13T05:26:11.567Z,11.07
2023-05-13T05:28:40.381Z,12.37
2023-05-13T05:31:08.080Z,13.70
2023-05-13T05:33:36.160Z,11.23
2023-05-13T05:36:03.805Z,11.87
2023-05-13T05:38:31.351Z,11.40
2023-05-13T05:40:58.866Z,13.70
2023-05-13T05:43:29.390Z,11.93
2023-05-13T05:45:57.053Z,11.37
2023-05-13T05:48:24.698Z,12.17
2023-05-13T05:50:52.280Z,11.33
2023-05-13T05:53:19.776Z,11.27
2023-05-13T05:55:47.324Z,14.40
2023-05-13T05:58:17.928Z,12.37
2023-05-13T06:00:45.479Z,13.77
2023-05-13T06:03:16.365Z,13.73
2023-05-13T06:05:44.379Z,15.10
2023-05-13T06:08:11.878Z,10.73
2023-05-13T06:10:39.478Z,14.03
2023-05-13T06:13:07.081Z,12.10
2023-05-13T06:15:34.783Z,15.80
2023-05-13T06:18:02.371Z,13.93
2023-05-13T06:20:29.937Z,12.07
2023-05-13T06:22:57.473Z,13.67
2023-05-13T06:25:25.057Z,12.57
2023-05-13T06:27:52.615Z,11.30
2023-05-13T06:30:20.386Z,14.03
2023-05-13T06:32:57.833Z,12.13
2023-05-13T06:35:28.987Z,14.60
2023-05-13T06:37:56.531Z,14.33
2023-05-13T06:40:24.493Z,14.10
2023-05-13T06:42:52.190Z,13.00
2023-05-13T06:45:19.794Z,13.33
2023-05-13T06:47:47.338Z,13.80
2023-05-13T06:50:14.933Z,16.07
2023-05-13T06:52:42.452Z,15.57
2023-05-13T06:55:10.271Z,15.13
2023-05-13T06:57:42.993Z,12.90
2023-05-13T07:00:11.358Z,13.97
2023-05-13T07:02:38.917Z,16.77
2023-05-13T07:05:07.075Z,16.17
2023-05-13T07:07:35.344Z,18.03
2023-05-13T07:10:02.893Z,19.03
2023-05-13T07:12:30.492Z,16.17
2023-05-13T07:14:58.129Z,18.03
2023-05-13T07:17:25.949Z,13.00
2023-05-13T07:19:53.609Z,12.47
2023-05-13T07:22:21.202Z,14.63
2023-05-13T07:24:48.744Z,15.10
2023-05-13T07:27:16.263Z,17.60
2023-05-13T07:29:43.900Z,16.87
2023-05-13T07:32:11.428Z,15.83
2023-05-13T07:34:39.251Z,13.20
2023-05-13T07:37:06.816Z,13.17
2023-05-13T07:39:34.394Z,14.27
2023-05-13T07:42:03.071Z,14.23
2023-05-13T07:44:30.673Z,13.73
2023-05-13T07:46:58.246Z,14.37
2023-05-13T07:49:25.947Z,13.30
2023-05-13T07:51:53.510Z,12.47
2023-05-13T07:54:21.123Z,13.57
2023-05-13T07:56:48.631Z,11.97
2023-05-13T07:59:16.220Z,12.40
2023-05-13T08:01:43.745Z,12.70
2023-05-13T08:04:11.572Z,8.73
2023-05-13T08:06:40.196Z,13.47
2023-05-13T08:09:10.155Z,13.40
2023-05-13T08:11:37.646Z,14.23
2023-05-13T08:14:05.890Z,12.33
2023-05-13T08:16:35.294Z,10.97
2023-05-13T08:19:02.924Z,14.20
2023-05-13T08:21:30.472Z,11.23
2023-05-13T08:23:58.024Z,10.67
2023-05-13T08:26:25.511Z,11.17
2023-05-13T08:28:55.339Z,14.77
2023-05-13T08:31:23.067Z,18.47
2023-05-13T08:33:53.482Z,16.70
2023-05-13T08:36:21.251Z,16.83
2023-05-13T08:38:48.905Z,11.70
2023-05-13T08:41:16.589Z,9.43
2023-05-13T08:43:44.483Z,11.77
2023-05-13T08:46:12.460Z,9.50
2023-05-13T08:48:41.460Z,10.90
2023-05-13T08:51:09.789Z,13.30
2023-05-13T08:53:39.193Z,12.03
2023-05-13T08:56:08.533Z,12.63
2023-05-13T08:58:38.492Z,12.73
2023-05-13T09:01:06.396Z,15.57
2023-05-13T09:03:35.220Z,12.23
2023-05-13T09:06:03.316Z,13.10
2023-05-13T09:08:30.830Z,14.13
2023-05-13T09:10:58.620Z,15.47
2023-05-13T09:13:26.092Z,5.97
2023-05-13T09:15:53.863Z,9.23
2023-05-13T09:18:21.468Z,8.67
2023-05-13T09:20:49.055Z,6.23
2023-05-13T09:23:16.582Z,9.70
2023-05-13T09:25:44.190Z,6.63
2023-05-13T09:28:14.629Z,7.77
2023-05-13T09:30:45.434Z,6.00
2023-05-13T09:33:18.086Z,7.73
2023-05-13T09:35:53.366Z,7.70
2023-05-13T09:38:25.533Z,6.70
2023-05-13T09:40:56.825Z,7.33
2023-05-13T09:43:25.621Z,7.63
2023-05-13T09:45:56.944Z,6.53
2023-05-13T09:48:28.384Z,4.93
2023-05-13T09:50:56.141Z,5.50
2023-05-13T09:53:23.769Z,7.60
2023-05-13T09:55:54.218Z,10.17
2023-05-13T09:58:22.797Z,7.77
2023-05-13T10:00:52.817Z,6.23
2023-05-13T10:03:20.554Z,7.70
2023-05-13T10:05:49.164Z,6.20
2023-05-13T10:08:18.241Z,9.60
2023-05-13T10:10:47.803Z,13.43
2023-05-13T10:13:16.757Z,8.60
2023-05-13T10:15:51.575Z,6.47
2023-05-13T10:18:19.881Z,8.53
2023-05-13T10:20:48.108Z,7.60
2023-05-13T10:23:15.760Z,6.37
2023-05-13T10:25:44.196Z,8.23
2023-05-13T10:28:12.186Z,9.63
2023-05-13T10:30:39.701Z,8.27
2023-05-13T10:33:07.669Z,8.67
2023-05-13T10:35:41.851Z,5.23
2023-05-13T10:38:13.377Z,6.60
2023-05-13T10:40:59.447Z,6.87
2023-05-13T10:43:30.505Z,6.63
2023-05-13T10:45:58.089Z,6.37
2023-05-13T10:48:25.810Z,4.83
2023-05-13T10:50:55.133Z,8.63
2023-05-13T10:53:28.687Z,8.90
2023-05-13T10:55:57.146Z,4.03
2023-05-13T10:58:31.414Z,5.67
2023-05-13T11:01:15.289Z,4.87
2023-05-13T11:03:43.323Z,5.17
2023-05-13T11:06:13.951Z,4.67
2023-05-13T11:08:42.547Z,7.37
2023-05-13T11:11:23.384Z,6.43
2023-05-13T11:13:54.391Z,3.63
2023-05-13T11:16:22.395Z,9.30
2023-05-13T11:18:50.179Z,5.77
2023-05-13T11:21:17.953Z,4.23
2023-05-13T11:23:58.569Z,3.33
2023-05-13T11:26:26.156Z,3.50
2023-05-13T11:29:04.167Z,3.20
2023-05-13T11:31:45.291Z,7.37
2023-05-13T11:34:14.062Z,8.33
2023-05-13T11:36:42.842Z,4.37
2023-05-13T11:39:11.496Z,6.30
2023-05-13T11:41:40.812Z,6.27
2023-05-13T11:44:08.657Z,4.03
2023-05-13T11:46:36.151Z,5.80
2023-05-13T11:49:05.842Z,5.03
2023-05-13T11:51:35.171Z,3.70
2023-05-13T11:54:03.630Z,3.73
2023-05-13T11:56:31.173Z,5.60
2023-05-13T11:59:13.136Z,4.03
2023-05-13T12:01:40.703Z,4.47
2023-05-13T12:04:08.169Z,4.20
2023-05-13T12:06:35.801Z,3.30
2023-05-13T12:09:07.154Z,3.83
2023-05-13T12:11:34.890Z,4.43
2023-05-13T12:14:02.514Z,5.67
2023-05-13T12:16:30.260Z,4.80
2023-05-13T12:19:04.827Z,4.67
2023-05-13T12:21:33.181Z,4.57
2023-05-13T12:24:01.257Z,9.33
2023-05-13T12:26:28.912Z,4.17
2023-05-13T12:28:59.981Z,5.93
2023-05-13T12:31:27.648Z,6.13
2023-05-13T12:33:55.174Z,4.53
2023-05-13T12:36:26.843Z,5.03
2023-05-13T12:39:01.421Z,6.37
2023-05-13T12:41:35.997Z,8.17
2023-05-13T12:44:04.742Z,6.37
2023-05-13T12:46:32.252Z,4.63
2023-05-13T12:49:00.793Z,4.50
2023-05-13T12:51:28.808Z,6.87
2023-05-13T12:53:56.759Z,6.30
2023-05-13T12:56:24.535Z,6.57
2023-05-13T12:58:53.433Z,6.00
2023-05-13T13:01:21.524Z,7.37
2023-05-13T13:03:49.302Z,5.07
2023-05-13T13:06:16.979Z,6.47
2023-05-13T13:08:44.718Z,5.47
2023-05-13T13:11:12.246Z,3.93
2023-05-13T13:13:39.813Z,6.03
2023-05-13T13:16:07.510Z,5.50
2023-05-13T13:18:35.124Z,11.20
2023-05-13T13:21:02.690Z,6.20
2023-05-13T13:23:30.256Z,4.93
2023-05-13T13:25:57.878Z,7.97
2023-05-13T13:28:28.537Z,5.43
2023-05-13T13:30:56.093Z,5.40
2023-05-13T13:33:23.652Z,5.53
2023-05-13T13:35:51.287Z,4.83
2023-05-13T13:38:18.788Z,5.33
2023-05-13T13:40:46.408Z,5.43
2023-05-13T13:43:13.963Z,5.80
2023-05-13T13:45:41.699Z,5.70
2023-05-13T13:48:09.356Z,5.77
2023-05-13T13:50:37.071Z,5.77
2023-05-13T13:53:04.643Z,4.30
2023-05-13T13:55:32.221Z,5.57
2023-05-13T13:57:59.812Z,3.93
2023-05-13T14:00:27.440Z,6.63
2023-05-13T14:02:55.125Z,3.83
2023-05-13T14:05:22.932Z,5.03
2023-05-13T14:07:50.530Z,7.03
2023-05-13T14:10:18.089Z,5.80
2023-05-13T14:12:45.839Z,5.97
2023-05-13T14:15:13.828Z,6.60
2023-05-13T14:17:41.512Z,7.27
2023-05-13T14:20:09.558Z,4.07
2023-05-13T14:22:37.235Z,7.83
2023-05-13T14:25:04.940Z,4.90
2023-05-13T14:27:32.511Z,5.47
2023-05-13T14:30:00.176Z,13.03
2023-05-13T14:32:27.708Z,5.60
2023-05-13T14:34:55.324Z,5.63
2023-05-13T14:37:22.830Z,5.87
2023-05-13T14:39:50.633Z,4.63
2023-05-13T14:42:18.539Z,4.97
2023-05-13T14:44:46.135Z,4.90
2023-05-13T14:47:13.670Z,4.87
2023-05-13T14:49:41.257Z,6.70
2023-05-13T14:52:08.752Z,5.93
2023-05-13T14:54:36.416Z,6.33
2023-05-13T14:57:04.348Z,8.23
2023-05-13T14:59:32.961Z,5.33
2023-05-13T15:02:01.842Z,5.07
2023-05-13T15:04:29.389Z,6.80
2023-05-13T15:06:57.085Z,7.23
2023-05-13T15:09:24.656Z,8.60
2023-05-13T15:11:52.153Z,5.43
2023-05-13T15:14:19.767Z,6.37
2023-05-13T15:16:47.359Z,4.07
2023-05-13T15:19:15.026Z,5.40
2023-05-13T15:21:42.537Z,4.73
2023-05-13T15:24:10.122Z,5.30
2023-05-13T15:26:37.637Z,4.00
2023-05-13T15:29:05.183Z,5.07
2023-05-13T15:31:32.842Z,5.83
2023-05-13T15:34:00.558Z,4.90
2023-05-13T15:36:28.342Z,6.37
2023-05-13T15:38:56.021Z,13.13
2023-05-13T15:41:23.493Z,5.00
2023-05-13T15:43:51.054Z,4.33
2023-05-13T15:46:18.610Z,5.43
2023-05-13T15:48:46.237Z,6.80
2023-05-13T15:51:13.786Z,9.17
2023-05-13T15:53:41.392Z,6.37
2023-05-13T15:56:08.891Z,8.53
2023-05-13T15:58:36.431Z,5.73
2023-05-13T16:01:04.030Z,4.23
2023-05-13T16:03:31.654Z,4.70
2023-05-13T16:05:59.435Z,7.03
2023-05-13T16:08:26.954Z,5.13
2023-05-13T16:10:54.521Z,9.93
2023-05-13T16:13:22.382Z,6.27
2023-05-13T16:15:50.044Z,6.13
2023-05-13T16:18:17.694Z,5.97
2023-05-13T16:20:45.386Z,7.83
2023-05-13T16:23:12.983Z,7.00
2023-05-13T16:25:40.686Z,5.70
2023-05-13T16:28:08.229Z,6.20
2023-05-13T16:30:35.735Z,8.67
2023-05-13T16:33:03.294Z,9.30
2023-05-13T16:35:30.874Z,7.50
2023-05-13T16:37:58.534Z,7.67
2023-05-13T16:40:26.178Z,11.40
2023-05-13T16:42:54.405Z,9.77
2023-05-13T16:45:24.108Z,13.07
2023-05-13T16:47:51.761Z,8.37
2023-05-13T16:50:19.332Z,4.83
2023-05-13T16:52:46.876Z,5.73
2023-05-13T16:55:14.574Z,6.93
2023-05-13T16:57:42.072Z,5.23
2023-05-13T17:00:10.083Z,6.47
2023-05-13T17:02:37.709Z,7.17
2023-05-13T17:05:05.559Z,6.27
2023-05-13T17:07:33.035Z,8.43
2023-05-13T17:10:00.547Z,5.30
2023-05-13T17:12:30.922Z,5.53
2023-05-13T17:14:58.549Z,8.87
2023-05-13T17:17:26.098Z,8.17
2023-05-13T17:19:53.730Z,5.93
2023-05-13T17:22:21.215Z,7.13
2023-05-13T17:24:48.739Z,5.70
2023-05-13T17:27:16.288Z,10.33
2023-05-13T17:29:43.844Z,7.57
2023-05-13T17:32:11.339Z,10.27
2023-05-13T17:34:38.933Z,9.53
2023-05-13T17:37:06.460Z,12.93
2023-05-13T17:39:34.045Z,7.33
2023-05-13T17:42:01.582Z,11.67
2023-05-13T17:44:29.185Z,5.90
2023-05-13T17:46:56.780Z,6.70
2023-05-13T17:49:24.342Z,8.50
2023-05-13T17:51:51.836Z,8.10
2023-05-13T17:54:19.451Z,7.47
2023-05-13T17:56:46.976Z,5.70
2023-05-13T17:59:14.549Z,4.60
2023-05-13T18:01:42.076Z,10.80
2023-05-13T18:04:09.632Z,5.80
2023-05-13T18:06:37.118Z,5.60
2023-05-13T18:09:04.722Z,5.60
2023-05-13T18:11:32.234Z,6.37
2023-05-13T18:13:59.840Z,6.37
2023-05-13T18:16:27.447Z,6.73
2023-05-13T18:18:55.039Z,7.27
2023-05-13T18:21:22.648Z,8.60
2023-05-13T18:23:50.199Z,6.67
2023-05-13T18:26:17.755Z,7.40
2023-05-13T18:28:45.318Z,7.37
2023-05-13T18:31:12.897Z,9.20
2023-05-13T18:33:40.573Z,8.03
2023-05-13T18:36:10.117Z,7.07
2023-05-13T18:38:37.956Z,8.20
2023-05-13T18:41:05.445Z,7.17
2023-05-13T18:43:33.026Z,7.07
2023-05-13T18:46:00.605Z,7.63
2023-05-13T18:48:28.190Z,6.77
2023-05-13T18:50:55.704Z,8.53
2023-05-13T18:53:23.284Z,8.67
2023-05-13T18:55:50.860Z,6.77
2023-05-13T18:58:18.448Z,7.97
2023-05-13T19:00:46.039Z,6.90
2023-05-13T19:03:14.090Z,9.50
2023-05-13T19:05:43.676Z,8.37
2023-05-13T19:08:11.229Z,6.67
2023-05-13T19:10:40.750Z,9.10
2023-05-13T19:13:08.444Z,10.90
2023-05-13T19:15:36.076Z,8.47
2023-05-13T19:18:03.829Z,12.27
2023-05-13T19:20:31.346Z,8.63
2023-05-13T19:22:58.884Z,9.33
2023-05-13T19:25:26.425Z,11.43
2023-05-13T19:27:54.037Z,11.47
2023-05-13T19:30:21.718Z,15.17
2023-05-13T19:32:49.591Z,11.13
2023-05-13T19:35:17.239Z,10.60
2023-05-13T19:37:44.827Z,14.83
2023-05-13T19:40:12.453Z,13.80
2023-05-13T19:42:40.035Z,16.43
2023-05-13T19:45:08.003Z,12.20
2023-05-13T19:47:35.684Z,12.60
2023-05-13T19:50:03.526Z,14.53
2023-05-13T19:52:31.098Z,12.87
2023-05-13T19:54:58.582Z,12.93
2023-05-13T19:57:27.507Z,12.13
2023-05-13T19:59:56.900Z,10.87
2023-05-13T20:02:24.459Z,14.80
2023-05-13T20:04:52.144Z,12.37
2023-05-13T20:07:19.655Z,11.77
2023-05-13T20:09:47.356Z,10.90
2023-05-13T20:12:15.017Z,12.57
2023-05-13T20:14:43.760Z,14.60
2023-05-13T20:17:11.509Z,9.80
2023-05-13T20:19:39.085Z,12.57
2023-05-13T20:22:06.565Z,12.83
2023-05-13T20:24:34.114Z,13.47
2023-05-13T20:27:01.610Z,15.17
2023-05-13T20:29:34.228Z,13.40
2023-05-13T20:32:01.837Z,16.03
2023-05-13T20:34:29.392Z,13.77
2023-05-13T20:36:57.168Z,13.77
2023-05-13T20:39:24.749Z,14.93
2023-05-13T20:41:52.460Z,13.93
2023-05-13T20:44:19.993Z,18.17
2023-05-13T20:46:47.739Z,21.40
2023-05-13T20:49:15.520Z,20.10
2023-05-13T20:51:43.304Z,18.13
2023-05-13T20:54:11.565Z,17.80
2023-05-13T20:56:39.615Z,18.67
2023-05-13T20:59:07.384Z,18.17
2023-05-13T21:01:35.503Z,17.97
2023-05-13T21:04:03.917Z,20.17
2023-05-13T21:06:31.545Z,19.37
2023-05-13T21:08:59.271Z,21.03
2023-05-13T21:11:26.822Z,21.50
2023-05-13T21:13:54.376Z,22.37
2023-05-13T21:16:22.055Z,23.30
2023-05-13T21:18:49.683Z,23.40
2023-05-13T21:21:17.298Z,24.30
2023-05-13T21:23:44.858Z,23.60
2023-05-13T21:26:13.122Z,20.83
2023-05-13T21:28:40.769Z,23.67
2023-05-13T21:31:11.074Z,27.03
2023-05-13T21:33:38.672Z,28.67
2023-05-13T21:36:06.276Z,25.40
2023-05-13T21:38:33.839Z,25.43
2023-05-13T21:41:01.384Z,24.00
2023-05-13T21:43:28.976Z,22.13
2023-05-13T21:45:56.465Z,21.80
2023-05-13T21:48:24.166Z,21.60
2023-05-13T21:50:51.774Z,22.07
2023-05-13T21:53:19.343Z,20.60
2023-05-13T21:55:46.873Z,22.93
2023-05-13T21:58:14.478Z,21.93
2023-05-13T22:00:41.978Z,22.10
2023-05-13T22:03:09.666Z,22.67
2023-05-13T22:05:37.256Z,21.23
2023-05-13T22:08:04.917Z,22.60
2023-05-13T22:10:32.464Z,20.03
2023-05-13T22:13:00.068Z,19.57
2023-05-13T22:15:27.654Z,19.63
2023-05-13T22:17:55.437Z,20.63
2023-05-13T22:20:23.322Z,20.27
2023-05-13T22:22:51.028Z,18.47
2023-05-13T22:25:18.532Z,19.83
2023-05-13T22:27:47.651Z,20.23
2023-05-13T22:30:15.318Z,17.90
2023-05-13T22:32:42.904Z,18.53
2023-05-13T22:35:10.497Z,18.87
2023-05-13T22:37:38.133Z,16.67
2023-05-13T22:40:05.974Z,15.50
2023-05-13T22:42:33.505Z,16.93
2023-05-13T22:45:01.040Z,14.90
2023-05-13T22:47:28.690Z,16.37
2023-05-13T22:49:56.242Z,13.70
2023-05-13T22:52:23.898Z,13.77
2023-05-13T22:54:51.381Z,10.83
2023-05-13T22:57:18.899Z,11.13
2023-05-13T22:59:46.437Z,12.47
2023-05-13T23:02:17.137Z,11.20
2023-05-13T23:04:44.698Z,12.27
2023-05-13T23:07:12.172Z,11.93
2023-05-13T23:09:42.437Z,10.50
2023-05-13T23:12:10.152Z,13.23
2023-05-13T23:14:37.694Z,15.47
2023-05-13T23:17:05.284Z,10.33
2023-05-13T23:19:32.838Z,10.17
2023-05-13T23:22:00.469Z,13.00
2023-05-13T23:24:28.033Z,9.90
2023-05-13T23:26:55.553Z,9.80
2023-05-13T23:29:23.132Z,9.67
2023-05-13T23:31:50.653Z,9.90
2023-05-13T23:34:18.215Z,9.50
2023-05-13T23:36:45.733Z,13.13
2023-05-13T23:39:13.239Z,10.13
2023-05-13T23:41:40.763Z,9.70
2023-05-13T23:44:08.384Z,10.53
2023-05-13T23:46:35.921Z,10.50
2023-05-13T23:49:03.502Z,12.07
2023-05-13T23:51:31.067Z,10.20
2023-05-13T23:53:58.642Z,10.93
2023-05-13T23:56:26.124Z,11.73
2023-05-13T23:58:53.681Z,11.43
